Weather observations for the past three days for
Waterville, Waterville Robert LaFleur Airport
Imperial (Metric)
Date Time (edt) Wind (mph) Vis. (mi.) Weather Sky Cond. Temperature (ºF) Relative Humidity Wind Chill (°F) Heat Index (°F) Pressure Precipitation (in)
Air Dwpt 6 hour altimeter (in) sea level (mb) 1 hr 3 hr 6 hr
Max. Min.
03 00:56 Calm 10.00 Overcast FEW007 OVC050 60.1 57.9 93% 30.09 1019.3
02 23:56 Calm 10.00 Overcast SCT009 OVC050 60.1 57.9 93% 30.1 1019.8
02 22:56 Vrbl 3 10.00 Overcast BKN009 OVC055 60.1 57 90% 30.12 1020.2
02 21:56 Calm 10.00 Overcast FEW011 BKN055 OVC070 60.1 57 90% 30.13 1020.8
02 20:56 Vrbl 5 10.00 Overcast OVC070 62.1 55.9 80% 30.12 1020.4
02 19:56 Calm 10.00 Overcast FEW060 OVC075 64 55 73 64 73% 30.13 1020.7
02 18:56 Calm 10.00 Overcast OVC060 64.9 54 68% 30.13 1020.9
02 17:56 Vrbl 5 10.00 Overcast OVC055 66.9 54 63% 30.14 1021.2
02 16:56 Vrbl 5 10.00 Overcast OVC060 70 55 59% 30.14 1021.2
02 15:56 Vrbl 5 10.00 Overcast BKN050 OVC070 71.1 53.1 53% 30.16 1021.7
02 14:56 Calm 10.00 Overcast OVC055 72 53.1 52% 30.17 1022.0
02 13:56 Calm 10.00 Mostly Cloudy BKN055 73 51.1 73.9 57 46% 30.17 1021.8
02 12:56 Vrbl 7 10.00 A Few Clouds FEW070 73 51.1 46% 30.18 1022.2
02 11:56 Vrbl 5 10.00 Fair CLR 73 52 48% 30.19 1022.6
02 10:56 SW 3 10.00 Fair CLR 70 55.9 61% 30.2 1023.0
02 09:56 S 5 10.00 Fair CLR 66 55.9 70% 30.21 1023.4
02 08:56 Calm 10.00 Overcast OVC002 59 55.9 90% 30.2 1023.3
02 07:56 N 6 2.50 Fog/Mist OVC002 57 57 59 55.9 100% 30.21 1023.5
02 06:56 N 3 0.15 Fog OVC002 55.9 55.9 100% 30.19 1022.9
02 05:56 Calm 10.00 Overcast OVC002 57 55.9 96% 30.19 1022.7
02 04:56 Calm 10.00 Overcast OVC004 57.9 57 97% 30.19 1022.6
02 03:56 Calm 10.00 Overcast OVC004 57.9 57.9 100% 30.18 1022.5
02 02:56 Calm 10.00 Overcast OVC006 59 57.9 96% 30.17 1022.1
02 01:56 N 3 10.00 Partly Cloudy SCT008 57.9 57 64.9 55 97% 30.16 1021.6
02 00:56 Calm 10.00 A Few Clouds FEW007 59 57.9 96% 30.15 1021.2
01 23:56 Calm 10.00 Fair CLR 57.9 57.9 100% 30.13 1020.8
01 22:56 Calm 10.00 Fair CLR 60.1 59 96% 30.12 1020.4
01 21:56 Calm 10.00 Fair CLR 60.1 57.9 93% 30.11 1020.1
01 20:56 Calm 10.00 Fair CLR 63 59 87% 30.1 1019.9
01 19:56 Vrbl 3 10.00 Fair CLR 64.9 59 78.1 64.9 81% 30.09 1019.3
01 18:56 Calm 10.00 Fair CLR 69.1 57 66% 30.08 1019.0
01 17:56 Vrbl 5 10.00 Fair CLR 73 57 57% 30.06 1018.3
01 16:56 Calm 10.00 A Few Clouds FEW065 73.9 54 50% 30.05 1017.9
01 15:56 Calm 10.00 Fair CLR 75.9 51.1 42% 78 30.04 1017.8
01 14:56 Calm 10.00 Fair CLR 75.9 52 43% 78 30.05 1018.0
01 13:56 Calm 9.00 A Few Clouds FEW050 73 51.1 75.9 57.9 46% 30.05 1017.9
01 12:56 Vrbl 5 10.00 Fair CLR 73 53.1 50% 30.05 1018.1
01 10:56 Vrbl 6 10.00 Fair CLR 66.9 53.1 61% 30.07 1018.8
01 09:56 NE 6 10.00 Fair CLR 64 53.1 68% 30.08 1019.1
01 08:56 N 8 10.00 Fair CLR 60.1 51.1 72% 30.08 1019.1
01 07:56 N 7 10.00 Fair CLR 57.9 52 57.9 50 81% 30.07 1018.9
01 06:56 N 6 10.00 Overcast OVC055 54 50 87% 30.06 1018.5
01 05:56 N 6 10.00 A Few Clouds FEW055 51.1 50 96% 30.05 1018.1
01 04:56 NE 5 10.00 Fair CLR 51.1 50 96% 30.05 1018.1
01 03:56 NE 6 10.00 Mostly Cloudy BKN060 52 51.1 97% 30.05 1018.0
01 02:56 Calm 10.00 Mostly Cloudy BKN065 51.1 50 96% 30.05 1018.3
01 01:56 Calm 10.00 Fair CLR 52 51.1 63 51.1 97% 30.06 1018.3
01 00:56 Calm 10.00 Fair CLR 52 50 93% 30.06 1018.3
31 23:56 Calm 10.00 Fair CLR 55 51.1 87% 30.05 1018.2
31 22:56 SW 3 10.00 Fair CLR 57 51.1 81% 30.06 1018.3
31 21:56 SW 3 10.00 Fair CLR 57.9 53.1 84% 30.05 1018.1
31 20:56 Calm 10.00 Fair CLR 61 54 78% 30.05 1018.0
31 19:56 Calm 10.00 Fair CLR 61 54 75.9 61 78% 30.03 1017.4
31 18:56 Calm 10.00 Fair CLR 69.1 54 59% 30.03 1017.4
31 17:56 Calm 10.00 Fair CLR 73.9 51.1 45% 30.03 1017.5
31 16:56 Vrbl 5 10.00 Fair CLR 75 50 42% 78 30.04 1017.5
31 15:56 NW 3 10.00 Fair CLR 75 48.9 40% 77 30.04 1017.6
31 14:56 S 3 10.00 Fair CLR 73 48 41% 30.06 1018.3
31 12:56 SW 5 10.00 Fair CLR 71.1 48.9 46% 30.09 1019.3
31 11:56 NW 9 10.00 Fair CLR 69.1 51.1 53% 30.1 1019.6
31 10:56 NW 6 10.00 Fair CLR 66.9 51.1 57% 30.12 1020.3
31 09:56 NW 6 10.00 Fair CLR 63 52 68% 30.12 1020.3
31 08:56 NW 6 10.00 Fair CLR 62.1 52 70% 30.1 1019.7
31 07:56 Vrbl 5 10.00 Fair CLR 59 52 59 51.1 78% 30.11 1020.0 0.01
31 06:56 NW 6 10.00 Fair CLR 54 51.1 90% 30.09 1019.6
31 05:56 NW 3 10.00 Fair CLR 52 50 93% 30.07 1018.8
31 04:56 N 8 10.00 Fair CLR 53.1 51.1 93% 30.05 1018.0 0.01 0.01
31 03:56 NW 5 10.00 Fair CLR 54 52 93% 30.05 1018.1
31 02:56 NW 6 10.00 Fair CLR 55 54 96% 30.05 1018.0
31 01:56 N 6 10.00 Fair CLR 55 54 69.1 55 96% 30.03 1017.5 0.13
Date Time (edt) Wind (mph) Vis. (mi.) Weather Sky Cond. Air Dwpt Max. Min. Relative Humidity Wind Chill (°F) Heat Index (°F) altimeter (in) sea level (mb) 1 hr 3 hr 6 hr
6 hour
Temperature (ºF) Pressure Precipitation (in)